sensor_id;sensor_type;location;lat;lon;timestamp;temperature;humidity
19085;DHT22;9675;51.538;6.728;2023-10-19T00:02:10;14.10;99.90
19085;DHT22;9675;51.538;6.728;2023-10-19T00:04:42;14.00;99.90
19085;DHT22;9675;51.538;6.728;2023-10-19T00:07:09;14.10;99.90
19085;DHT22;9675;51.538;6.728;2023-10-19T00:09:41;14.00;99.90
19085;DHT22;9675;51.538;6.728;2023-10-19T00:12:11;14.00;99.90
19085;DHT22;9675;51.538;6.728;2023-10-19T00:14:40;14.00;99.90
19085;DHT22;9675;51.538;6.728;2023-10-19T00:17:07;14.00;99.90
19085;DHT22;9675;51.538;6.728;2023-10-19T00:19:36;14.00;99.90
19085;DHT22;9675;51.538;6.728;2023-10-19T00:22:09;14.00;99.90
19085;DHT22;9675;51.538;6.728;2023-10-19T00:24:41;14.00;99.90
19085;DHT22;9675;51.538;6.728;2023-10-19T00:27:09;14.00;99.90
19085;DHT22;9675;51.538;6.728;2023-10-19T00:29:42;14.00;99.90
19085;DHT22;9675;51.538;6.728;2023-10-19T00:32:14;14.00;99.90
19085;DHT22;9675;51.538;6.728;2023-10-19T00:34:43;13.90;99.90
19085;DHT22;9675;51.538;6.728;2023-10-19T00:37:18;13.90;99.90
19085;DHT22;9675;51.538;6.728;2023-10-19T00:39:53;13.90;99.90
19085;DHT22;9675;51.538;6.728;2023-10-19T00:42:21;13.90;99.90
19085;DHT22;9675;51.538;6.728;2023-10-19T00:44:55;13.90;99.90
19085;DHT22;9675;51.538;6.728;2023-10-19T00:47:28;13.90;99.90
19085;DHT22;9675;51.538;6.728;2023-10-19T00:50:05;13.90;99.90
19085;DHT22;9675;51.538;6.728;2023-10-19T00:52:42;13.90;99.90
19085;DHT22;9675;51.538;6.728;2023-10-19T00:55:15;13.90;99.90
19085;DHT22;9675;51.538;6.728;2023-10-19T00:57:44;13.90;99.90
19085;DHT22;9675;51.538;6.728;2023-10-19T01:00:15;13.90;99.90
19085;DHT22;9675;51.538;6.728;2023-10-19T01:02:55;13.90;99.90
19085;DHT22;9675;51.538;6.728;2023-10-19T01:05:25;13.90;99.90
19085;DHT22;9675;51.538;6.728;2023-10-19T01:07:59;13.90;99.90
19085;DHT22;9675;51.538;6.728;2023-10-19T01:10:30;13.90;99.90
19085;DHT22;9675;51.538;6.728;2023-10-19T01:12:57;13.90;99.90
19085;DHT22;9675;51.538;6.728;2023-10-19T01:15:26;13.90;99.90
19085;DHT22;9675;51.538;6.728;2023-10-19T01:18:02;13.90;99.90
19085;DHT22;9675;51.538;6.728;2023-10-19T01:20:33;13.90;99.90
19085;DHT22;9675;51.538;6.728;2023-10-19T01:23:15;13.90;99.90
19085;DHT22;9675;51.538;6.728;2023-10-19T01:25:53;13.90;99.90
19085;DHT22;9675;51.538;6.728;2023-10-19T01:28:34;13.90;99.90
19085;DHT22;9675;51.538;6.728;2023-10-19T01:31:10;13.90;99.90
19085;DHT22;9675;51.538;6.728;2023-10-19T01:33:42;13.90;99.90
19085;DHT22;9675;51.538;6.728;2023-10-19T01:36:11;13.90;99.90
19085;DHT22;9675;51.538;6.728;2023-10-19T01:38:41;13.90;99.90
19085;DHT22;9675;51.538;6.728;2023-10-19T01:41:09;13.90;99.90
19085;DHT22;9675;51.538;6.728;2023-10-19T01:43:41;13.90;99.90
19085;DHT22;9675;51.538;6.728;2023-10-19T01:46:08;13.90;99.90
19085;DHT22;9675;51.538;6.728;2023-10-19T01:48:39;13.90;99.90
19085;DHT22;9675;51.538;6.728;2023-10-19T01:51:07;13.90;99.90
19085;DHT22;9675;51.538;6.728;2023-10-19T01:53:38;13.90;99.90
19085;DHT22;9675;51.538;6.728;2023-10-19T01:56:07;13.90;99.90
19085;DHT22;9675;51.538;6.728;2023-10-19T01:58:37;13.90;99.90
19085;DHT22;9675;51.538;6.728;2023-10-19T02:01:05;13.90;99.90
19085;DHT22;9675;51.538;6.728;2023-10-19T02:03:41;13.90;99.90
19085;DHT22;9675;51.538;6.728;2023-10-19T02:06:08;13.90;99.90
19085;DHT22;9675;51.538;6.728;2023-10-19T02:08:45;13.90;99.90
19085;DHT22;9675;51.538;6.728;2023-10-19T02:11:15;14.00;99.90
19085;DHT22;9675;51.538;6.728;2023-10-19T02:13:44;14.00;99.90
19085;DHT22;9675;51.538;6.728;2023-10-19T02:16:15;13.90;99.90
19085;DHT22;9675;51.538;6.728;2023-10-19T02:18:43;14.00;99.90
19085;DHT22;9675;51.538;6.728;2023-10-19T02:21:09;14.00;99.90
19085;DHT22;9675;51.538;6.728;2023-10-19T02:23:39;14.00;99.90
19085;DHT22;9675;51.538;6.728;2023-10-19T02:26:07;14.00;99.90
19085;DHT22;9675;51.538;6.728;2023-10-19T02:28:39;14.00;99.90
19085;DHT22;9675;51.538;6.728;2023-10-19T02:31:06;14.00;99.90
19085;DHT22;9675;51.538;6.728;2023-10-19T02:33:42;14.00;99.90
19085;DHT22;9675;51.538;6.728;2023-10-19T02:36:11;14.00;99.90
19085;DHT22;9675;51.538;6.728;2023-10-19T02:38:41;14.00;99.90
19085;DHT22;9675;51.538;6.728;2023-10-19T02:41:10;14.00;99.90
19085;DHT22;9675;51.538;6.728;2023-10-19T02:43:38;14.00;99.90
19085;DHT22;9675;51.538;6.728;2023-10-19T02:46:07;14.00;99.90
19085;DHT22;9675;51.538;6.728;2023-10-19T02:48:36;14.00;99.90
19085;DHT22;9675;51.538;6.728;2023-10-19T02:51:02;14.00;99.90
19085;DHT22;9675;51.538;6.728;2023-10-19T02:53:36;14.00;99.90
19085;DHT22;9675;51.538;6.728;2023-10-19T02:56:10;14.00;99.90
19085;DHT22;9675;51.538;6.728;2023-10-19T02:58:42;14.00;99.90
19085;DHT22;9675;51.538;6.728;2023-10-19T03:01:13;14.00;99.90
19085;DHT22;9675;51.538;6.728;2023-10-19T03:03:44;14.10;99.90
19085;DHT22;9675;51.538;6.728;2023-10-19T03:06:10;14.10;99.90
19085;DHT22;9675;51.538;6.728;2023-10-19T03:08:37;14.10;99.90
19085;DHT22;9675;51.538;6.728;2023-10-19T03:11:03;14.10;99.90
19085;DHT22;9675;51.538;6.728;2023-10-19T03:13:34;14.10;99.90
19085;DHT22;9675;51.538;6.728;2023-10-19T03:16:02;14.10;99.90
19085;DHT22;9675;51.538;6.728;2023-10-19T03:18:33;14.10;99.90
19085;DHT22;9675;51.538;6.728;2023-10-19T03:21:01;14.10;99.90
19085;DHT22;9675;51.538;6.728;2023-10-19T03:23:28;14.10;99.90
19085;DHT22;9675;51.538;6.728;2023-10-19T03:25:55;14.10;99.90
19085;DHT22;9675;51.538;6.728;2023-10-19T03:28:40;14.10;99.90
19085;DHT22;9675;51.538;6.728;2023-10-19T03:31:10;14.10;99.90
19085;DHT22;9675;51.538;6.728;2023-10-19T03:33:43;14.10;99.90
19085;DHT22;9675;51.538;6.728;2023-10-19T03:36:13;14.10;99.90
19085;DHT22;9675;51.538;6.728;2023-10-19T03:38:40;14.10;99.90
19085;DHT22;9675;51.538;6.728;2023-10-19T03:41:09;14.20;99.90
19085;DHT22;9675;51.538;6.728;2023-10-19T03:43:36;14.20;99.90
19085;DHT22;9675;51.538;6.728;2023-10-19T03:46:06;14.20;99.90
19085;DHT22;9675;51.538;6.728;2023-10-19T03:48:49;14.20;99.90
19085;DHT22;9675;51.538;6.728;2023-10-19T03:51:16;14.20;99.90
19085;DHT22;9675;51.538;6.728;2023-10-19T03:53:44;14.20;99.90
19085;DHT22;9675;51.538;6.728;2023-10-19T03:56:19;14.20;99.90
19085;DHT22;9675;51.538;6.728;2023-10-19T03:58:47;14.20;99.90
19085;DHT22;9675;51.538;6.728;2023-10-19T04:01:16;14.20;99.90
19085;DHT22;9675;51.538;6.728;2023-10-19T04:03:46;14.20;99.90
19085;DHT22;9675;51.538;6.728;2023-10-19T04:06:16;14.20;99.90
19085;DHT22;9675;51.538;6.728;2023-10-19T04:08:45;14.30;99.90
19085;DHT22;9675;51.538;6.728;2023-10-19T04:11:16;14.30;99.90
19085;DHT22;9675;51.538;6.728;2023-10-19T04:13:49;14.30;99.90
19085;DHT22;9675;51.538;6.728;2023-10-19T04:16:20;14.30;99.90
19085;DHT22;9675;51.538;6.728;2023-10-19T04:18:47;14.30;99.90
19085;DHT22;9675;51.538;6.728;2023-10-19T04:21:16;14.30;99.90
19085;DHT22;9675;51.538;6.728;2023-10-19T04:23:43;14.30;99.90
19085;DHT22;9675;51.538;6.728;2023-10-19T04:26:12;14.30;99.90
19085;DHT22;9675;51.538;6.728;2023-10-19T04:28:40;14.30;99.90
19085;DHT22;9675;51.538;6.728;2023-10-19T04:31:16;14.30;99.90
19085;DHT22;9675;51.538;6.728;2023-10-19T04:33:44;14.30;99.90
19085;DHT22;9675;51.538;6.728;2023-10-19T04:36:16;14.40;99.90
19085;DHT22;9675;51.538;6.728;2023-10-19T04:38:47;14.30;99.90
19085;DHT22;9675;51.538;6.728;2023-10-19T04:41:14;14.30;99.90
19085;DHT22;9675;51.538;6.728;2023-10-19T04:43:41;14.30;99.90
19085;DHT22;9675;51.538;6.728;2023-10-19T04:46:15;14.30;99.90
19085;DHT22;9675;51.538;6.728;2023-10-19T04:48:44;14.30;99.90
19085;DHT22;9675;51.538;6.728;2023-10-19T04:51:11;14.30;99.90
19085;DHT22;9675;51.538;6.728;2023-10-19T04:53:40;14.40;99.90
19085;DHT22;9675;51.538;6.728;2023-10-19T04:56:08;14.40;99.90
19085;DHT22;9675;51.538;6.728;2023-10-19T04:58:35;14.40;99.90
19085;DHT22;9675;51.538;6.728;2023-10-19T05:01:03;14.40;99.90
19085;DHT22;9675;51.538;6.728;2023-10-19T05:03:30;14.40;99.90
19085;DHT22;9675;51.538;6.728;2023-10-19T05:05:58;14.40;99.90
19085;DHT22;9675;51.538;6.728;2023-10-19T05:08:25;14.40;99.90
19085;DHT22;9675;51.538;6.728;2023-10-19T05:10:55;14.40;99.90
19085;DHT22;9675;51.538;6.728;2023-10-19T05:13:25;14.40;99.90
19085;DHT22;9675;51.538;6.728;2023-10-19T05:15:53;14.40;99.90
19085;DHT22;9675;51.538;6.728;2023-10-19T05:18:20;14.40;99.90
19085;DHT22;9675;51.538;6.728;2023-10-19T05:20:48;14.50;99.90
19085;DHT22;9675;51.538;6.728;2023-10-19T05:23:21;14.40;99.90
19085;DHT22;9675;51.538;6.728;2023-10-19T05:25:49;14.50;99.90
19085;DHT22;9675;51.538;6.728;2023-10-19T05:28:19;14.50;99.90
19085;DHT22;9675;51.538;6.728;2023-10-19T05:30:47;14.50;99.90
19085;DHT22;9675;51.538;6.728;2023-10-19T05:33:15;14.50;99.90
19085;DHT22;9675;51.538;6.728;2023-10-19T05:35:46;14.50;99.90
19085;DHT22;9675;51.538;6.728;2023-10-19T05:38:13;14.50;99.90
19085;DHT22;9675;51.538;6.728;2023-10-19T05:40:41;14.50;99.90
19085;DHT22;9675;51.538;6.728;2023-10-19T05:43:09;14.50;99.90
19085;DHT22;9675;51.538;6.728;2023-10-19T05:45:38;14.50;99.90
19085;DHT22;9675;51.538;6.728;2023-10-19T05:48:06;14.50;99.90
19085;DHT22;9675;51.538;6.728;2023-10-19T05:50:34;14.50;99.90
19085;DHT22;9675;51.538;6.728;2023-10-19T05:53:02;14.50;99.90
19085;DHT22;9675;51.538;6.728;2023-10-19T05:55:30;14.50;99.90
19085;DHT22;9675;51.538;6.728;2023-10-19T05:57:58;14.50;99.90
19085;DHT22;9675;51.538;6.728;2023-10-19T06:00:26;14.50;99.90
19085;DHT22;9675;51.538;6.728;2023-10-19T06:02:55;14.50;99.90
19085;DHT22;9675;51.538;6.728;2023-10-19T06:05:23;14.50;99.90
19085;DHT22;9675;51.538;6.728;2023-10-19T06:07:50;14.50;99.90
19085;DHT22;9675;51.538;6.728;2023-10-19T06:10:19;14.50;99.90
19085;DHT22;9675;51.538;6.728;2023-10-19T06:12:49;14.50;99.90
19085;DHT22;9675;51.538;6.728;2023-10-19T06:15:18;14.50;99.90
19085;DHT22;9675;51.538;6.728;2023-10-19T06:17:47;14.50;99.90
19085;DHT22;9675;51.538;6.728;2023-10-19T06:20:17;14.50;99.90
19085;DHT22;9675;51.538;6.728;2023-10-19T06:22:50;14.50;99.90
19085;DHT22;9675;51.538;6.728;2023-10-19T06:25:18;14.50;99.90
19085;DHT22;9675;51.538;6.728;2023-10-19T06:27:47;14.50;99.90
19085;DHT22;9675;51.538;6.728;2023-10-19T06:30:15;14.50;99.90
19085;DHT22;9675;51.538;6.728;2023-10-19T06:32:48;14.50;99.90
19085;DHT22;9675;51.538;6.728;2023-10-19T06:35:18;14.50;99.90
19085;DHT22;9675;51.538;6.728;2023-10-19T06:37:46;14.50;99.90
19085;DHT22;9675;51.538;6.728;2023-10-19T06:40:15;14.50;99.90
19085;DHT22;9675;51.538;6.728;2023-10-19T06:42:43;14.50;99.90
19085;DHT22;9675;51.538;6.728;2023-10-19T06:45:11;14.50;99.90
19085;DHT22;9675;51.538;6.728;2023-10-19T06:47:41;14.50;99.90
19085;DHT22;9675;51.538;6.728;2023-10-19T06:50:11;14.50;99.90
19085;DHT22;9675;51.538;6.728;2023-10-19T06:52:43;14.50;99.90
19085;DHT22;9675;51.538;6.728;2023-10-19T06:55:12;14.50;99.90
19085;DHT22;9675;51.538;6.728;2023-10-19T06:57:40;14.60;99.90
19085;DHT22;9675;51.538;6.728;2023-10-19T07:00:10;14.50;99.90
19085;DHT22;9675;51.538;6.728;2023-10-19T07:02:41;14.50;99.90
19085;DHT22;9675;51.538;6.728;2023-10-19T07:05:09;14.50;99.90
19085;DHT22;9675;51.538;6.728;2023-10-19T07:07:39;14.60;99.90
19085;DHT22;9675;51.538;6.728;2023-10-19T07:10:09;14.60;99.90
19085;DHT22;9675;51.538;6.728;2023-10-19T07:12:39;14.60;99.90
19085;DHT22;9675;51.538;6.728;2023-10-19T07:15:07;14.60;99.90
19085;DHT22;9675;51.538;6.728;2023-10-19T07:17:39;14.60;99.90
19085;DHT22;9675;51.538;6.728;2023-10-19T07:20:07;14.60;99.90
19085;DHT22;9675;51.538;6.728;2023-10-19T07:22:47;14.60;99.90
19085;DHT22;9675;51.538;6.728;2023-10-19T07:25:16;14.60;99.90
19085;DHT22;9675;51.538;6.728;2023-10-19T07:27:46;14.60;99.90
19085;DHT22;9675;51.538;6.728;2023-10-19T07:30:13;14.50;99.90
19085;DHT22;9675;51.538;6.728;2023-10-19T07:32:46;14.60;99.90
19085;DHT22;9675;51.538;6.728;2023-10-19T07:35:17;14.60;99.90
19085;DHT22;9675;51.538;6.728;2023-10-19T07:37:45;14.60;99.90
19085;DHT22;9675;51.538;6.728;2023-10-19T07:40:13;14.60;99.90
19085;DHT22;9675;51.538;6.728;2023-10-19T07:42:43;14.60;99.90
19085;DHT22;9675;51.538;6.728;2023-10-19T07:45:10;14.60;99.90
19085;DHT22;9675;51.538;6.728;2023-10-19T07:47:38;14.70;99.90
19085;DHT22;9675;51.538;6.728;2023-10-19T07:50:07;14.70;99.90
19085;DHT22;9675;51.538;6.728;2023-10-19T07:52:38;14.70;99.90
19085;DHT22;9675;51.538;6.728;2023-10-19T07:55:06;14.70;99.90
19085;DHT22;9675;51.538;6.728;2023-10-19T07:57:35;14.70;99.90
19085;DHT22;9675;51.538;6.728;2023-10-19T08:00:03;14.70;99.90
19085;DHT22;9675;51.538;6.728;2023-10-19T08:02:31;14.70;99.90
19085;DHT22;9675;51.538;6.728;2023-10-19T08:04:59;14.70;99.90
19085;DHT22;9675;51.538;6.728;2023-10-19T08:07:28;14.70;99.90
19085;DHT22;9675;51.538;6.728;2023-10-19T08:09:55;14.70;99.90
19085;DHT22;9675;51.538;6.728;2023-10-19T08:12:24;14.70;99.90
19085;DHT22;9675;51.538;6.728;2023-10-19T08:14:53;14.80;99.90
19085;DHT22;9675;51.538;6.728;2023-10-19T08:17:21;14.80;99.90
19085;DHT22;9675;51.538;6.728;2023-10-19T08:19:48;14.80;99.90
19085;DHT22;9675;51.538;6.728;2023-10-19T08:22:16;14.80;99.90
19085;DHT22;9675;51.538;6.728;2023-10-19T08:24:43;14.80;99.90
19085;DHT22;9675;51.538;6.728;2023-10-19T08:27:11;14.80;99.90
19085;DHT22;9675;51.538;6.728;2023-10-19T08:29:39;14.90;99.90
19085;DHT22;9675;51.538;6.728;2023-10-19T08:32:07;14.90;99.90
19085;DHT22;9675;51.538;6.728;2023-10-19T08:34:35;14.90;99.90
19085;DHT22;9675;51.538;6.728;2023-10-19T08:37:02;14.90;99.90
19085;DHT22;9675;51.538;6.728;2023-10-19T08:39:30;14.90;99.90
19085;DHT22;9675;51.538;6.728;2023-10-19T08:42:01;15.00;99.90
19085;DHT22;9675;51.538;6.728;2023-10-19T08:44:29;14.90;99.90
19085;DHT22;9675;51.538;6.728;2023-10-19T08:46:57;14.90;99.90
19085;DHT22;9675;51.538;6.728;2023-10-19T08:49:26;15.00;99.90
19085;DHT22;9675;51.538;6.728;2023-10-19T08:51:53;15.00;99.90
19085;DHT22;9675;51.538;6.728;2023-10-19T08:54:21;15.00;99.90
19085;DHT22;9675;51.538;6.728;2023-10-19T08:56:48;15.10;99.90
19085;DHT22;9675;51.538;6.728;2023-10-19T08:59:15;15.10;99.90
19085;DHT22;9675;51.538;6.728;2023-10-19T09:01:43;15.10;99.90
19085;DHT22;9675;51.538;6.728;2023-10-19T09:04:10;15.10;99.90
19085;DHT22;9675;51.538;6.728;2023-10-19T09:06:40;15.10;99.90
19085;DHT22;9675;51.538;6.728;2023-10-19T09:09:08;15.10;99.90
19085;DHT22;9675;51.538;6.728;2023-10-19T09:11:42;15.20;99.90
19085;DHT22;9675;51.538;6.728;2023-10-19T09:14:09;15.20;99.90
19085;DHT22;9675;51.538;6.728;2023-10-19T09:16:38;15.20;99.90
19085;DHT22;9675;51.538;6.728;2023-10-19T09:19:20;15.20;99.90
19085;DHT22;9675;51.538;6.728;2023-10-19T09:21:48;15.30;99.90
19085;DHT22;9675;51.538;6.728;2023-10-19T09:24:17;15.30;99.90
19085;DHT22;9675;51.538;6.728;2023-10-19T09:26:44;15.30;99.90
19085;DHT22;9675;51.538;6.728;2023-10-19T09:29:13;15.40;99.90
19085;DHT22;9675;51.538;6.728;2023-10-19T09:31:44;15.30;99.90
19085;DHT22;9675;51.538;6.728;2023-10-19T09:34:14;15.40;99.90
19085;DHT22;9675;51.538;6.728;2023-10-19T09:36:43;15.40;99.90
19085;DHT22;9675;51.538;6.728;2023-10-19T09:39:12;15.40;99.90
19085;DHT22;9675;51.538;6.728;2023-10-19T09:41:42;15.50;99.90
19085;DHT22;9675;51.538;6.728;2023-10-19T09:44:11;15.50;99.90
19085;DHT22;9675;51.538;6.728;2023-10-19T09:46:40;15.50;99.90
19085;DHT22;9675;51.538;6.728;2023-10-19T09:49:08;15.60;99.90
19085;DHT22;9675;51.538;6.728;2023-10-19T09:51:39;15.60;99.90
19085;DHT22;9675;51.538;6.728;2023-10-19T09:54:17;15.70;99.90
19085;DHT22;9675;51.538;6.728;2023-10-19T09:56:59;15.70;99.90
19085;DHT22;9675;51.538;6.728;2023-10-19T09:59:40;15.80;99.90
19085;DHT22;9675;51.538;6.728;2023-10-19T10:02:13;15.80;99.90
19085;DHT22;9675;51.538;6.728;2023-10-19T10:04:44;15.80;99.90
19085;DHT22;9675;51.538;6.728;2023-10-19T10:07:13;15.90;99.90
19085;DHT22;9675;51.538;6.728;2023-10-19T10:09:43;15.90;99.90
19085;DHT22;9675;51.538;6.728;2023-10-19T10:12:21;16.00;99.90
19085;DHT22;9675;51.538;6.728;2023-10-19T10:14:56;16.00;99.90
19085;DHT22;9675;51.538;6.728;2023-10-19T10:17:25;16.10;99.90
19085;DHT22;9675;51.538;6.728;2023-10-19T10:19:54;16.10;99.90
19085;DHT22;9675;51.538;6.728;2023-10-19T10:22:24;16.20;99.90
19085;DHT22;9675;51.538;6.728;2023-10-19T10:24:55;16.30;99.90
19085;DHT22;9675;51.538;6.728;2023-10-19T10:27:22;16.40;99.90
19085;DHT22;9675;51.538;6.728;2023-10-19T10:29:54;16.40;99.90
19085;DHT22;9675;51.538;6.728;2023-10-19T10:32:44;16.50;99.90
19085;DHT22;9675;51.538;6.728;2023-10-19T10:38:20;16.70;99.90
19085;DHT22;9675;51.538;6.728;2023-10-19T10:40:49;16.80;99.90
19085;DHT22;9675;51.538;6.728;2023-10-19T10:43:18;16.90;99.90
19085;DHT22;9675;51.538;6.728;2023-10-19T10:45:47;17.00;99.90
19085;DHT22;9675;51.538;6.728;2023-10-19T10:48:15;17.00;99.90
19085;DHT22;9675;51.538;6.728;2023-10-19T10:50:44;17.20;99.90
19085;DHT22;9675;51.538;6.728;2023-10-19T10:53:13;17.20;99.90
19085;DHT22;9675;51.538;6.728;2023-10-19T10:55:41;17.30;99.90
19085;DHT22;9675;51.538;6.728;2023-10-19T10:58:15;17.40;99.90
19085;DHT22;9675;51.538;6.728;2023-10-19T11:00:42;17.40;99.90
19085;DHT22;9675;51.538;6.728;2023-10-19T11:03:10;17.50;99.90
19085;DHT22;9675;51.538;6.728;2023-10-19T11:05:38;17.60;99.90
19085;DHT22;9675;51.538;6.728;2023-10-19T11:08:07;17.70;99.90
19085;DHT22;9675;51.538;6.728;2023-10-19T11:10:39;17.80;99.90
19085;DHT22;9675;51.538;6.728;2023-10-19T11:13:10;17.90;99.90
19085;DHT22;9675;51.538;6.728;2023-10-19T11:15:39;18.00;99.90
19085;DHT22;9675;51.538;6.728;2023-10-19T11:18:28;18.00;99.90
19085;DHT22;9675;51.538;6.728;2023-10-19T11:20:56;18.10;99.90
19085;DHT22;9675;51.538;6.728;2023-10-19T11:23:41;18.20;99.90
19085;DHT22;9675;51.538;6.728;2023-10-19T11:26:09;18.20;99.90
19085;DHT22;9675;51.538;6.728;2023-10-19T11:28:39;18.30;99.90
19085;DHT22;9675;51.538;6.728;2023-10-19T11:31:13;18.40;99.90
19085;DHT22;9675;51.538;6.728;2023-10-19T11:33:42;18.50;99.90
19085;DHT22;9675;51.538;6.728;2023-10-19T11:36:10;18.60;99.90
19085;DHT22;9675;51.538;6.728;2023-10-19T11:38:42;18.70;99.90
19085;DHT22;9675;51.538;6.728;2023-10-19T11:41:10;18.80;99.90
19085;DHT22;9675;51.538;6.728;2023-10-19T11:43:42;18.80;99.90
19085;DHT22;9675;51.538;6.728;2023-10-19T11:46:10;18.90;99.90
19085;DHT22;9675;51.538;6.728;2023-10-19T11:48:40;19.00;99.90
19085;DHT22;9675;51.538;6.728;2023-10-19T11:51:09;19.10;99.90
19085;DHT22;9675;51.538;6.728;2023-10-19T11:53:38;19.20;99.90
19085;DHT22;9675;51.538;6.728;2023-10-19T11:56:07;19.20;99.90
19085;DHT22;9675;51.538;6.728;2023-10-19T11:58:36;19.30;99.90
19085;DHT22;9675;51.538;6.728;2023-10-19T12:01:08;19.30;99.90
19085;DHT22;9675;51.538;6.728;2023-10-19T12:03:37;19.40;99.90
19085;DHT22;9675;51.538;6.728;2023-10-19T12:06:06;19.40;99.90
19085;DHT22;9675;51.538;6.728;2023-10-19T12:08:33;19.40;99.90
19085;DHT22;9675;51.538;6.728;2023-10-19T12:11:01;19.50;99.90
19085;DHT22;9675;51.538;6.728;2023-10-19T12:13:30;19.50;99.90
19085;DHT22;9675;51.538;6.728;2023-10-19T12:15:57;19.50;99.90
19085;DHT22;9675;51.538;6.728;2023-10-19T12:18:26;19.50;99.90
19085;DHT22;9675;51.538;6.728;2023-10-19T12:20:54;19.60;99.90
19085;DHT22;9675;51.538;6.728;2023-10-19T12:23:22;19.60;99.90
19085;DHT22;9675;51.538;6.728;2023-10-19T12:25:51;19.60;99.90
19085;DHT22;9675;51.538;6.728;2023-10-19T12:28:18;19.60;99.90
19085;DHT22;9675;51.538;6.728;2023-10-19T12:30:46;19.60;99.90
19085;DHT22;9675;51.538;6.728;2023-10-19T12:33:13;19.70;99.90
19085;DHT22;9675;51.538;6.728;2023-10-19T12:35:42;19.70;99.90
19085;DHT22;9675;51.538;6.728;2023-10-19T12:38:16;19.70;99.90
19085;DHT22;9675;51.538;6.728;2023-10-19T12:40:46;19.70;99.90
19085;DHT22;9675;51.538;6.728;2023-10-19T12:43:14;19.70;99.90
19085;DHT22;9675;51.538;6.728;2023-10-19T12:45:44;19.70;99.90
19085;DHT22;9675;51.538;6.728;2023-10-19T12:48:16;19.70;99.90
19085;DHT22;9675;51.538;6.728;2023-10-19T12:50:45;19.70;99.90
19085;DHT22;9675;51.538;6.728;2023-10-19T12:53:12;19.70;99.90
19085;DHT22;9675;51.538;6.728;2023-10-19T12:55:39;19.70;99.90
19085;DHT22;9675;51.538;6.728;2023-10-19T12:58:09;19.70;99.90
19085;DHT22;9675;51.538;6.728;2023-10-19T13:00:37;19.80;99.90
19085;DHT22;9675;51.538;6.728;2023-10-19T13:03:10;19.80;99.90
19085;DHT22;9675;51.538;6.728;2023-10-19T13:05:42;19.80;99.90
19085;DHT22;9675;51.538;6.728;2023-10-19T13:08:12;19.70;99.90
19085;DHT22;9675;51.538;6.728;2023-10-19T13:10:41;19.80;99.90
19085;DHT22;9675;51.538;6.728;2023-10-19T13:13:11;19.80;99.90
19085;DHT22;9675;51.538;6.728;2023-10-19T13:15:41;19.80;99.90
19085;DHT22;9675;51.538;6.728;2023-10-19T13:18:11;19.70;99.90
19085;DHT22;9675;51.538;6.728;2023-10-19T13:20:46;19.70;99.90
19085;DHT22;9675;51.538;6.728;2023-10-19T13:23:15;19.70;99.90
19085;DHT22;9675;51.538;6.728;2023-10-19T13:25:47;19.70;99.90
19085;DHT22;9675;51.538;6.728;2023-10-19T13:28:19;19.70;99.90
19085;DHT22;9675;51.538;6.728;2023-10-19T13:30:48;19.70;99.90
19085;DHT22;9675;51.538;6.728;2023-10-19T13:33:17;19.70;99.90
19085;DHT22;9675;51.538;6.728;2023-10-19T13:35:47;19.70;99.90
19085;DHT22;9675;51.538;6.728;2023-10-19T13:38:17;19.80;99.90
19085;DHT22;9675;51.538;6.728;2023-10-19T13:40:46;19.70;99.90
19085;DHT22;9675;51.538;6.728;2023-10-19T13:43:15;19.70;99.90
19085;DHT22;9675;51.538;6.728;2023-10-19T13:45:44;19.70;99.90
19085;DHT22;9675;51.538;6.728;2023-10-19T13:48:13;19.70;99.90
19085;DHT22;9675;51.538;6.728;2023-10-19T13:50:42;19.70;99.90
19085;DHT22;9675;51.538;6.728;2023-10-19T13:53:11;19.70;99.90
19085;DHT22;9675;51.538;6.728;2023-10-19T13:55:40;19.70;99.90
19085;DHT22;9675;51.538;6.728;2023-10-19T13:58:07;19.70;99.90
19085;DHT22;9675;51.538;6.728;2023-10-19T14:00:35;19.60;99.90
19085;DHT22;9675;51.538;6.728;2023-10-19T14:03:06;19.70;99.90
19085;DHT22;9675;51.538;6.728;2023-10-19T14:05:36;19.70;99.90
19085;DHT22;9675;51.538;6.728;2023-10-19T14:08:05;19.70;99.90
19085;DHT22;9675;51.538;6.728;2023-10-19T14:10:33;19.70;99.90
19085;DHT22;9675;51.538;6.728;2023-10-19T14:13:02;19.60;99.90
19085;DHT22;9675;51.538;6.728;2023-10-19T14:15:30;19.60;99.90
19085;DHT22;9675;51.538;6.728;2023-10-19T14:18:00;19.60;99.90
19085;DHT22;9675;51.538;6.728;2023-10-19T14:20:29;19.60;99.90
19085;DHT22;9675;51.538;6.728;2023-10-19T14:22:57;19.60;99.90
19085;DHT22;9675;51.538;6.728;2023-10-19T14:25:24;19.50;99.90
19085;DHT22;9675;51.538;6.728;2023-10-19T14:27:55;19.50;99.90
19085;DHT22;9675;51.538;6.728;2023-10-19T14:30:26;19.50;99.90
19085;DHT22;9675;51.538;6.728;2023-10-19T14:32:55;19.50;99.90
19085;DHT22;9675;51.538;6.728;2023-10-19T14:35:24;19.50;99.90
19085;DHT22;9675;51.538;6.728;2023-10-19T14:37:53;19.50;99.90
19085;DHT22;9675;51.538;6.728;2023-10-19T14:40:24;19.40;99.90
19085;DHT22;9675;51.538;6.728;2023-10-19T14:42:54;19.40;99.90
19085;DHT22;9675;51.538;6.728;2023-10-19T14:45:25;19.40;99.90
19085;DHT22;9675;51.538;6.728;2023-10-19T14:47:54;19.40;99.90
19085;DHT22;9675;51.538;6.728;2023-10-19T14:50:24;19.40;99.90
19085;DHT22;9675;51.538;6.728;2023-10-19T14:52:53;19.40;99.90
19085;DHT22;9675;51.538;6.728;2023-10-19T14:55:21;19.40;99.90
19085;DHT22;9675;51.538;6.728;2023-10-19T14:57:50;19.30;99.90
19085;DHT22;9675;51.538;6.728;2023-10-19T15:00:19;19.30;99.90
19085;DHT22;9675;51.538;6.728;2023-10-19T15:03:01;19.30;99.90
19085;DHT22;9675;51.538;6.728;2023-10-19T15:05:32;19.30;99.90
19085;DHT22;9675;51.538;6.728;2023-10-19T15:08:02;19.30;99.90
19085;DHT22;9675;51.538;6.728;2023-10-19T15:10:32;19.30;99.90
19085;DHT22;9675;51.538;6.728;2023-10-19T15:12:59;19.30;99.90
19085;DHT22;9675;51.538;6.728;2023-10-19T15:15:29;19.30;99.90
19085;DHT22;9675;51.538;6.728;2023-10-19T15:17:58;19.20;99.90
19085;DHT22;9675;51.538;6.728;2023-10-19T15:20:27;19.20;99.90
19085;DHT22;9675;51.538;6.728;2023-10-19T15:22:55;19.20;99.90
19085;DHT22;9675;51.538;6.728;2023-10-19T15:25:23;19.20;99.90
19085;DHT22;9675;51.538;6.728;2023-10-19T15:27:51;19.20;99.90
19085;DHT22;9675;51.538;6.728;2023-10-19T15:30:19;19.20;99.90
19085;DHT22;9675;51.538;6.728;2023-10-19T15:32:49;19.10;99.90
19085;DHT22;9675;51.538;6.728;2023-10-19T15:35:20;19.10;99.90
19085;DHT22;9675;51.538;6.728;2023-10-19T15:37:48;19.10;99.90
19085;DHT22;9675;51.538;6.728;2023-10-19T15:40:16;19.10;99.90
19085;DHT22;9675;51.538;6.728;2023-10-19T15:42:44;19.10;99.90
19085;DHT22;9675;51.538;6.728;2023-10-19T15:45:14;19.00;99.90
19085;DHT22;9675;51.538;6.728;2023-10-19T15:47:44;19.00;99.90
19085;DHT22;9675;51.538;6.728;2023-10-19T15:50:12;19.00;99.90
19085;DHT22;9675;51.538;6.728;2023-10-19T15:52:41;19.00;99.90
19085;DHT22;9675;51.538;6.728;2023-10-19T15:55:09;19.00;99.90
19085;DHT22;9675;51.538;6.728;2023-10-19T15:57:37;18.90;99.90
19085;DHT22;9675;51.538;6.728;2023-10-19T16:00:07;18.90;99.90
19085;DHT22;9675;51.538;6.728;2023-10-19T16:02:39;18.90;99.90
19085;DHT22;9675;51.538;6.728;2023-10-19T16:05:06;18.80;99.90